Akita, Japan

2:53 PM JST on July 30, 2014 (GMT +0900)
Akita (RJSK) Elev 315 ft | 39.62 °N, 140.22 °E | Change Station

Current weather conditions updated 53 minutes ago

Scattered Clouds
Scattered Clouds
86 °F
Feels Like 87 °F
N
7
Wind Variable Wind from WSW

Today is forecast to be nearly the same temperature as yesterday. Scattered thunderstorms tonight.

Today
High -- | Low -- °F
--% Chance of Precip.
Yesterday
High -- | Low -- °F
Precip. -- in
4:36 AM 6:55 PM
Waxing Crescent, 10% visible
Pressure 29.95 in
Visibility 6.2 miles
Clouds Few 3500 ft
Scattered Clouds 6000 ft
Heat Index 87 °F
Dew Point 63 °F
Humidity 45%
Rainfall 0.00 in
Snow Depth Not available.
UV 6 out of 12
Pollen Not available.
Air Quality Not available.
Flu Activity Not available.
METAR RJSK 300500Z 24006KT 200V280 9999 FEW035 SCT060 BKN/// 30/17 Q1014

More Conditions Fewer Conditions

Pressure 29.95 in
Visibility 6.2 miles
Clouds Few 3500 ft
Scattered Clouds 6000 ft
Heat Index 87 °F
Dew Point 63 °F
Humidity 45%
Rainfall 0.00 in
Snow Depth Not available.
UV 6 out of 12
Pollen Not available.
Air Quality Not available.
Flu Activity Not available.
METAR RJSK 300500Z 24006KT 200V280 9999 FEW035 SCT060 BKN/// 30/17 Q1014

More Conditions Fewer Conditions

10-Day Weather Forecast

Almanac

Astronomy

Jul. 30, 2014 Rise Set
Actual Time 4:36 AM JST 6:55 PM JST
Civil Twilight 4:05 AM JST 7:25 PM JST
Nautical Twilight 3:28 AM JST 8:02 PM JST
Astronomical Twilight 2:47 AM JST 8:44 PM JST
Moon 7:32 AM JST 8:19 PM JST
Length of Visible Light 15h 19m
Length of Day
14h 18m
Tomorrow will be 1m 54s shorter.
Waxing Crescent, 10% of the Moon is Illuminated
Today
Waxing Crescent
Aug 3
First Quarter
Aug 10
Full
Aug 17
Last Quarter
Aug 25
New

Yesterday's Extremes

Country Highs Country Lows

Community

WunderPhotos

Upload Photos

1,739,006 photos uploaded!

WunderBlogs® & News

By Dr. Jeff Masters
Director of Meteorology, Weather Underground
By Kari Strenfel
Meteorologist, Weather Underground
By Christopher C. Burt
Weather Historian, Weather Underground
July 29, 2014
July 29, 2014
July 29, 2014

Nearby

Snow Depth

Not available.

Earthquake Activity

City Distance Mag. Time & Date
No recent earthquake activity has been reported nearby.
Minimum magnitude displayed is 2.5.

Coastal Water Temperatures

Place Temperature
No Stations Reporting

Nearby Weather Stations

There are no personal weather stations in this area.